Time;durP1;ratioP1;P1;durP2;ratioP2;P2;SDS_P1;SDS_P2;PMS_P1;PMS_P2;Temp;Humidity;BMP_temperature;BMP_pressure;BME280_temperature;BME280_humidity;BME280_pressure;Samples;Min_cycle;Max_cycle;Signal;HPM_P1;HPM_P2
2023/12/17 00:00:46;;;;;;;9.73;4.80;;;;;;;;;;5024783;28;20456;-86
2023/12/17 00:03:30;;;;;;;12.83;4.27;;;;;;;;;;5023485;28;20489;-86
2023/12/17 00:06:11;;;;;;;9.37;6.20;;;;;;;;;;5022822;28;20951;-87
2023/12/17 00:08:48;;;;;;;8.13;5.30;;;;;;;;;;5026324;28;20943;-86
2023/12/17 00:11:40;;;;;;;11.07;5.23;;;;;;;;;;5023536;28;20525;-86
2023/12/17 00:14:15;;;;;;;8.30;5.00;;;;;;;;;;5022059;28;20493;-87
2023/12/17 00:16:46;;;;;;;8.37;4.50;;;;;;;;;;5019899;28;20469;-85
2023/12/17 00:19:28;;;;;;;7.87;4.70;;;;;;;;;;5021469;28;20455;-84
2023/12/17 00:22:03;;;;;;;7.90;4.97;;;;;;;;;;5028256;28;20457;-87
2023/12/17 00:24:32;;;;;;;7.60;4.67;;;;;;;;;;5023098;28;20453;-87
2023/12/17 00:27:03;;;;;;;5.33;3.93;;;;;;;;;;5020282;28;20482;-87
2023/12/17 00:29:39;;;;;;;10.80;4.20;;;;;;;;;;5022826;28;20439;-86
2023/12/17 00:32:06;;;;;;;8.33;4.20;;;;;;;;;;5022752;28;20477;-87
2023/12/17 00:34:35;;;;;;;6.87;4.60;;;;;;;;;;5027605;28;20510;-87
2023/12/17 00:37:04;;;;;;;6.30;4.37;;;;;;;;;;5028991;28;20482;-85
2023/12/17 00:39:41;;;;;;;11.27;4.70;;;;;;;;;;5034247;28;20457;-84
2023/12/17 00:42:09;;;;;;;6.50;4.83;;;;;;;;;;5033743;28;20510;-86
2023/12/17 00:44:51;;;;;;;6.67;4.47;;;;;;;;;;5034926;28;20466;-86
2023/12/17 00:47:19;;;;;;;6.63;4.27;;;;;;;;;;5025169;28;20482;-87
2023/12/17 00:49:47;;;;;;;6.80;4.47;;;;;;;;;;5034094;28;20460;-85
2023/12/17 00:52:14;;;;;;;7.00;4.53;;;;;;;;;;5031329;28;20499;-89
2023/12/17 00:54:45;;;;;;;7.73;4.17;;;;;;;;;;5027771;28;20441;-86
2023/12/17 00:57:15;;;;;;;5.00;3.50;;;;;;;;;;5027330;28;20457;-84
2023/12/17 00:59:50;;;;;;;5.80;4.37;;;;;;;;;;5026422;28;20446;-88
2023/12/17 01:02:28;;;;;;;5.50;4.20;;;;;;;;;;5024005;28;20468;-87
2023/12/17 01:05:02;;;;;;;4.37;3.93;;;;;;;;;;5021417;28;20515;-86
2023/12/17 01:07:31;;;;;;;4.83;3.20;;;;;;;;;;5026306;28;20477;-87
2023/12/17 01:10:00;;;;;;;7.10;4.23;;;;;;;;;;5024870;28;20443;-85
2023/12/17 01:12:28;;;;;;;6.53;4.10;;;;;;;;;;5016228;28;20494;-86
2023/12/17 01:15:02;;;;;;;4.80;3.23;;;;;;;;;;5025929;28;20497;-87
2023/12/17 01:17:37;;;;;;;7.47;3.93;;;;;;;;;;5025631;28;20435;-86
2023/12/17 01:20:13;;;;;;;5.43;3.80;;;;;;;;;;5022654;28;20487;-86
2023/12/17 01:22:43;;;;;;;5.00;3.80;;;;;;;;;;5019273;28;20687;-86
2023/12/17 01:25:11;;;;;;;6.13;3.13;;;;;;;;;;5020776;28;20476;-86
2023/12/17 01:27:53;;;;;;;5.00;3.30;;;;;;;;;;5032370;28;20580;-85
2023/12/17 01:30:36;;;;;;;4.33;3.33;;;;;;;;;;5038409;28;20443;-86
2023/12/17 01:33:11;;;;;;;5.37;3.60;;;;;;;;;;5039014;28;20480;-87
2023/12/17 01:35:52;;;;;;;4.53;3.33;;;;;;;;;;5032999;28;20439;-86
2023/12/17 01:38:32;;;;;;;3.83;3.43;;;;;;;;;;5021807;28;20462;-84
2023/12/17 01:41:02;;;;;;;4.90;3.50;;;;;;;;;;5022507;28;20456;-87
2023/12/17 01:43:35;;;;;;;5.53;3.47;;;;;;;;;;5028505;28;20459;-87
2023/12/17 01:46:06;;;;;;;7.17;3.67;;;;;;;;;;5004638;28;20456;-85
2023/12/17 01:48:50;;;;;;;4.37;3.53;;;;;;;;;;5019972;28;20482;-86
2023/12/17 01:51:21;;;;;;;5.20;3.50;;;;;;;;;;5022683;28;20465;-84
2023/12/17 01:53:59;;;;;;;5.93;3.90;;;;;;;;;;5028127;28;20478;-84
2023/12/17 01:56:27;;;;;;;3.80;3.40;;;;;;;;;;5038131;28;20611;-89
2023/12/17 01:59:02;;;;;;;3.37;3.07;;;;;;;;;;5038145;28;20488;-82
2023/12/17 02:01:48;;;;;;;4.90;3.30;;;;;;;;;;5038565;28;20463;-85
2023/12/17 02:04:30;;;;;;;4.67;3.00;;;;;;;;;;5030446;28;20569;-87
2023/12/17 02:07:07;;;;;;;3.80;3.40;;;;;;;;;;5024028;28;20858;-85
2023/12/17 02:09:40;;;;;;;6.10;3.57;;;;;;;;;;5027698;28;20455;-87
2023/12/17 02:12:24;;;;;;;5.60;3.10;;;;;;;;;;5028216;28;20531;-86
2023/12/17 02:15:04;;;;;;;6.90;3.33;;;;;;;;;;5032181;28;21000;-85
2023/12/17 02:17:39;;;;;;;3.67;3.23;;;;;;;;;;5028845;28;20478;-87
2023/12/17 02:20:08;;;;;;;6.13;3.10;;;;;;;;;;5022808;28;20478;-85
2023/12/17 02:22:53;;;;;;;3.63;3.13;;;;;;;;;;5019085;28;20897;-86
2023/12/17 02:25:29;;;;;;;6.93;3.47;;;;;;;;;;5019234;28;20486;-85
2023/12/17 02:28:00;;;;;;;8.10;3.20;;;;;;;;;;5020102;28;20493;-86
2023/12/17 02:30:45;;;;;;;5.97;3.60;;;;;;;;;;5023440;28;20446;-86
2023/12/17 02:33:22;;;;;;;4.60;3.20;;;;;;;;;;5027067;28;20526;-86
2023/12/17 02:35:56;;;;;;;5.80;2.87;;;;;;;;;;5031517;28;20472;-88
2023/12/17 02:38:37;;;;;;;4.87;3.13;;;;;;;;;;5019203;28;20460;-87
2023/12/17 02:41:37;;;;;;;3.53;2.80;;;;;;;;;;5023155;28;20462;-88
2023/12/17 02:44:08;;;;;;;4.93;3.43;;;;;;;;;;5019584;28;20486;-86
2023/12/17 02:46:40;;;;;;;6.00;3.50;;;;;;;;;;5016461;28;20474;-87
2023/12/17 02:49:14;;;;;;;5.20;3.27;;;;;;;;;;5022366;28;20508;-87
2023/12/17 02:51:44;;;;;;;8.43;4.07;;;;;;;;;;5021751;28;20573;-88
2023/12/17 02:54:17;;;;;;;6.20;3.67;;;;;;;;;;5049426;22;21072;-87
2023/12/17 02:56:53;;;;;;;4.60;4.20;;;;;;;;;;5039582;28;20455;-87
2023/12/17 02:59:26;;;;;;;4.83;4.20;;;;;;;;;;5039705;28;20451;-84
2023/12/17 03:04:37;;;;;;;7.03;4.00;;;;;;;;;;5019965;28;20495;-87
2023/12/17 03:07:21;;;;;;;6.17;3.60;;;;;;;;;;5027074;28;20482;-88
2023/12/17 03:09:59;;;;;;;10.07;3.60;;;;;;;;;;5020481;28;20626;-87
2023/12/17 03:12:29;;;;;;;9.50;4.37;;;;;;;;;;5019653;28;20471;-87
2023/12/17 03:15:02;;;;;;;5.67;3.67;;;;;;;;;;5021461;28;20482;-87
2023/12/17 03:17:46;;;;;;;10.13;3.97;;;;;;;;;;5015113;28;20476;-87
2023/12/17 03:20:17;;;;;;;4.50;3.87;;;;;;;;;;5022898;28;20829;-88
2023/12/17 03:22:58;;;;;;;5.47;3.57;;;;;;;;;;5022181;28;20493;-88
2023/12/17 03:25:31;;;;;;;6.60;4.00;;;;;;;;;;5017280;28;20461;-87
2023/12/17 03:28:09;;;;;;;6.13;3.60;;;;;;;;;;5026333;28;20502;-86
2023/12/17 03:30:43;;;;;;;6.33;3.90;;;;;;;;;;5024816;28;20485;-88
2023/12/17 03:33:29;;;;;;;8.00;3.77;;;;;;;;;;5024515;28;20557;-88
2023/12/17 03:36:21;;;;;;;5.03;4.13;;;;;;;;;;5034006;28;20450;-87
2023/12/17 03:38:56;;;;;;;5.90;3.57;;;;;;;;;;5022325;28;20472;-86
2023/12/17 03:41:28;;;;;;;5.47;4.27;;;;;;;;;;5016121;28;20454;-87
2023/12/17 03:44:11;;;;;;;6.40;4.27;;;;;;;;;;5020986;28;20471;-87
2023/12/17 03:46:41;;;;;;;7.30;3.70;;;;;;;;;;5021937;28;20964;-88
2023/12/17 03:49:13;;;;;;;7.67;4.23;;;;;;;;;;5022807;28;21272;-88
2023/12/17 03:51:50;;;;;;;7.33;3.80;;;;;;;;;;5022671;28;20471;-88
2023/12/17 03:54:32;;;;;;;9.63;4.10;;;;;;;;;;5020181;28;20455;-88
2023/12/17 03:57:03;;;;;;;4.97;4.20;;;;;;;;;;5021137;28;20454;-83
2023/12/17 03:59:37;;;;;;;6.20;3.70;;;;;;;;;;5014325;28;20462;-86
2023/12/17 04:02:07;;;;;;;4.43;4.03;;;;;;;;;;5018136;28;20504;-86
2023/12/17 04:04:39;;;;;;;7.10;4.10;;;;;;;;;;5034018;28;20528;-87
2023/12/17 04:07:08;;;;;;;6.30;3.47;;;;;;;;;;5031642;28;20441;-86
2023/12/17 04:09:37;;;;;;;6.47;3.80;;;;;;;;;;5034164;28;20514;-87
2023/12/17 04:12:18;;;;;;;6.37;3.43;;;;;;;;;;5032310;28;20469;-88
2023/12/17 04:14:55;;;;;;;6.60;4.00;;;;;;;;;;5025639;28;20450;-87
2023/12/17 04:17:29;;;;;;;6.20;4.23;;;;;;;;;;5024473;28;20475;-88
2023/12/17 04:20:15;;;;;;;6.47;3.97;;;;;;;;;;5022113;28;20509;-87
2023/12/17 04:22:56;;;;;;;7.30;3.57;;;;;;;;;;5016241;28;20471;-83
2023/12/17 04:25:30;;;;;;;6.13;3.50;;;;;;;;;;5020701;28;20479;-87
2023/12/17 04:28:05;;;;;;;3.40;3.10;;;;;;;;;;5021780;28;20567;-87
2023/12/17 04:30:40;;;;;;;3.90;3.07;;;;;;;;;;5022873;28;20461;-87
2023/12/17 04:33:11;;;;;;;2.73;2.50;;;;;;;;;;5028105;28;20471;-87
2023/12/17 04:35:57;;;;;;;2.57;2.03;;;;;;;;;;5020018;28;20973;-87
2023/12/17 04:38:35;;;;;;;2.80;2.40;;;;;;;;;;5022267;28;20482;-87
2023/12/17 04:41:12;;;;;;;3.30;2.53;;;;;;;;;;5019208;28;20459;-86
2023/12/17 04:43:45;;;;;;;5.47;3.30;;;;;;;;;;5024348;28;20470;-88
2023/12/17 04:46:23;;;;;;;3.13;2.83;;;;;;;;;;5022627;28;20460;-88
2023/12/17 04:48:53;;;;;;;2.97;2.63;;;;;;;;;;5024281;28;20578;-88
2023/12/17 04:51:29;;;;;;;3.37;2.83;;;;;;;;;;5038402;28;20449;-87
2023/12/17 04:54:05;;;;;;;3.37;3.10;;;;;;;;;;5019703;28;20470;-89
2023/12/17 04:56:42;;;;;;;3.87;2.60;;;;;;;;;;5018234;28;20891;-87
2023/12/17 04:59:12;;;;;;;4.20;2.77;;;;;;;;;;5024866;28;20480;-87
2023/12/17 05:01:42;;;;;;;3.00;2.50;;;;;;;;;;5022401;28;20478;-87
2023/12/17 05:04:19;;;;;;;3.50;2.63;;;;;;;;;;5023000;28;20993;-86
2023/12/17 05:07:05;;;;;;;3.07;2.60;;;;;;;;;;5024988;28;20458;-86
2023/12/17 05:09:42;;;;;;;2.90;2.60;;;;;;;;;;5021609;28;20508;-86
2023/12/17 05:12:18;;;;;;;3.27;2.67;;;;;;;;;;5023858;28;20462;-88
2023/12/17 05:14:52;;;;;;;4.37;3.07;;;;;;;;;;5023678;28;20455;-87
2023/12/17 05:17:25;;;;;;;4.37;3.00;;;;;;;;;;5019258;28;20532;-86
2023/12/17 05:19:56;;;;;;;3.30;2.90;;;;;;;;;;5024831;28;20475;-87
2023/12/17 05:22:31;;;;;;;4.27;3.17;;;;;;;;;;5025962;28;20538;-87
2023/12/17 05:25:03;;;;;;;4.10;3.57;;;;;;;;;;5031678;28;20450;-86
2023/12/17 05:27:59;;;;;;;4.90;3.80;;;;;;;;;;5007357;28;20443;-87
2023/12/17 05:30:38;;;;;;;7.27;3.67;;;;;;;;;;5023883;28;20447;-87
2023/12/17 05:33:26;;;;;;;4.97;2.93;;;;;;;;;;5030344;28;20474;-88
2023/12/17 05:36:14;;;;;;;4.33;3.77;;;;;;;;;;5033009;28;20454;-86
2023/12/17 05:38:42;;;;;;;5.27;3.77;;;;;;;;;;5024932;28;20561;-86
2023/12/17 05:41:12;;;;;;;4.67;3.73;;;;;;;;;;5026107;28;20837;-87
2023/12/17 05:43:44;;;;;;;7.80;4.80;;;;;;;;;;5022543;28;20495;-87
2023/12/17 05:46:25;;;;;;;;;;;;;;;;;;;;;
2023/12/17 05:49:14;;;;;;;4.63;4.10;;;;;;;;;;5036724;28;20485;-85
2023/12/17 05:51:53;;;;;;;6.00;4.47;;;;;;;;;;5031325;28;21732;-86
2023/12/17 05:54:31;;;;;;;3.90;3.17;;;;;;;;;;5026617;28;20455;-84
2023/12/17 05:57:07;;;;;;;4.80;4.00;;;;;;;;;;5027988;28;20502;-86
2023/12/17 05:59:36;;;;;;;6.43;4.17;;;;;;;;;;5026401;28;20480;-88
2023/12/17 06:02:07;;;;;;;5.87;3.87;;;;;;;;;;5018616;28;20480;-86
2023/12/17 06:04:40;;;;;;;6.23;4.43;;;;;;;;;;5025915;28;20474;-86
2023/12/17 06:07:33;;;;;;;5.80;4.40;;;;;;;;;;5023939;28;20458;-89
2023/12/17 06:10:06;;;;;;;7.90;4.77;;;;;;;;;;5018287;28;20483;-87
2023/12/17 06:12:44;;;;;;;6.63;4.80;;;;;;;;;;5017229;28;20467;-87
2023/12/17 06:15:15;;;;;;;5.23;4.00;;;;;;;;;;5020409;28;20522;-85
2023/12/17 06:17:46;;;;;;;9.60;3.90;;;;;;;;;;5020848;28;20455;-86
2023/12/17 06:20:21;;;;;;;4.47;3.33;;;;;;;;;;5014600;28;20467;-87
2023/12/17 06:22:55;;;;;;;5.13;3.90;;;;;;;;;;5020276;28;20475;-86
2023/12/17 06:25:28;;;;;;;4.87;3.67;;;;;;;;;;5026681;28;20496;-87
2023/12/17 06:28:08;;;;;;;4.13;3.50;;;;;;;;;;5020709;28;20596;-84
2023/12/17 06:30:39;;;;;;;4.93;3.40;;;;;;;;;;5013642;28;20478;-87
2023/12/17 06:33:16;;;;;;;5.73;3.43;;;;;;;;;;5020201;28;20475;-88
2023/12/17 06:35:52;;;;;;;3.90;3.27;;;;;;;;;;5029888;28;20439;-85
2023/12/17 06:38:27;;;;;;;7.67;3.43;;;;;;;;;;5023344;28;20464;-87
2023/12/17 06:41:26;;;;;;;5.23;3.67;;;;;;;;;;5011252;28;20439;-85
2023/12/17 06:44:10;;;;;;;5.30;3.73;;;;;;;;;;5022139;28;20494;-86
2023/12/17 06:46:46;;;;;;;5.33;3.60;;;;;;;;;;5019986;28;20450;-87
2023/12/17 06:49:20;;;;;;;4.20;3.57;;;;;;;;;;5021436;28;20489;-87
2023/12/17 06:51:53;;;;;;;5.77;3.60;;;;;;;;;;5020904;28;20447;-86
2023/12/17 06:54:22;;;;;;;4.90;3.50;;;;;;;;;;5022044;28;20550;-88
2023/12/17 06:56:55;;;;;;;6.37;3.70;;;;;;;;;;5020765;28;20458;-86
2023/12/17 06:59:25;;;;;;;6.27;4.00;;;;;;;;;;5021653;28;20477;-88
2023/12/17 07:01:54;;;;;;;3.20;2.90;;;;;;;;;;5020226;28;20521;-87
2023/12/17 07:04:37;;;;;;;3.43;3.13;;;;;;;;;;5021103;28;20497;-87
2023/12/17 07:07:10;;;;;;;5.37;3.97;;;;;;;;;;5019523;28;20495;-87
2023/12/17 07:09:53;;;;;;;;;;;;;;;;;;;;;
2023/12/17 07:12:30;;;;;;;7.13;3.90;;;;;;;;;;5019136;28;20494;-86
2023/12/17 07:15:05;;;;;;;9.03;4.77;;;;;;;;;;5004725;28;20754;-86
2023/12/17 07:17:33;;;;;;;7.00;4.23;;;;;;;;;;5020276;28;20547;-88
2023/12/17 07:20:03;;;;;;;7.90;4.30;;;;;;;;;;5036477;28;20447;-86
2023/12/17 07:22:38;;;;;;;8.53;4.63;;;;;;;;;;5037459;28;20498;-87
2023/12/17 07:25:09;;;;;;;4.57;3.83;;;;;;;;;;5037144;28;20444;-85
2023/12/17 07:27:44;;;;;;;6.60;3.47;;;;;;;;;;5033513;28;20441;-84
2023/12/17 07:30:17;;;;;;;4.50;3.90;;;;;;;;;;5024625;28;20482;-88
2023/12/17 07:35:29;;;;;;;6.17;4.70;;;;;;;;;;4999611;28;20820;-87
2023/12/17 07:38:02;;;;;;;7.23;4.50;;;;;;;;;;5006557;28;20448;-86
2023/12/17 07:40:32;;;;;;;5.73;4.20;;;;;;;;;;5007284;28;20439;-87
2023/12/17 07:43:04;;;;;;;6.17;4.70;;;;;;;;;;4998099;28;20472;-86
2023/12/17 07:45:37;;;;;;;6.27;4.77;;;;;;;;;;4995856;28;20520;-86
2023/12/17 07:48:10;;;;;;;6.00;4.97;;;;;;;;;;5002633;28;20447;-87
2023/12/17 07:50:38;;;;;;;7.17;5.03;;;;;;;;;;5009222;28;20452;-88
2023/12/17 07:53:10;;;;;;;5.57;4.77;;;;;;;;;;5064275;22;23738;-87
2023/12/17 07:55:37;;;;;;;6.37;4.70;;;;;;;;;;5030497;28;20458;-86
2023/12/17 07:58:09;;;;;;;4.40;3.37;;;;;;;;;;5034866;28;20457;-88
2023/12/17 08:00:40;;;;;;;4.50;3.43;;;;;;;;;;5040232;28;20442;-87
2023/12/17 08:03:11;;;;;;;5.60;3.70;;;;;;;;;;5030782;28;20475;-86
2023/12/17 08:05:41;;;;;;;5.00;3.87;;;;;;;;;;5013274;28;20465;-87
2023/12/17 08:08:12;;;;;;;5.00;3.73;;;;;;;;;;5014244;28;20447;-88
2023/12/17 08:11:04;;;;;;;5.30;3.10;;;;;;;;;;5020298;28;21005;-88
2023/12/17 08:13:37;;;;;;;5.67;4.27;;;;;;;;;;5021182;28;20468;-86
2023/12/17 08:16:05;;;;;;;4.10;3.67;;;;;;;;;;5018154;28;20454;-85
2023/12/17 08:18:35;;;;;;;5.07;4.17;;;;;;;;;;5022557;28;20471;-85
2023/12/17 08:21:03;;;;;;;4.23;2.90;;;;;;;;;;5035811;28;20458;-86
2023/12/17 08:23:30;;;;;;;3.90;3.50;;;;;;;;;;5028400;28;20539;-84
2023/12/17 08:26:00;;;;;;;4.07;3.60;;;;;;;;;;5036916;28;20447;-86
2023/12/17 08:28:32;;;;;;;5.47;3.30;;;;;;;;;;5034473;28;20477;-83
2023/12/17 08:33:38;;;;;;;3.30;2.93;;;;;;;;;;5104478;22;20500;-85
2023/12/17 08:36:07;;;;;;;4.87;3.30;;;;;;;;;;5053316;28;20477;-87
2023/12/17 08:38:45;;;;;;;3.40;2.50;;;;;;;;;;5060497;28;20472;-85
2023/12/17 08:41:13;;;;;;;5.70;2.83;;;;;;;;;;5046321;28;20476;-87
2023/12/17 08:43:45;;;;;;;3.40;3.00;;;;;;;;;;5043216;28;20481;-86
2023/12/17 08:46:20;;;;;;;2.90;2.63;;;;;;;;;;5047242;28;20519;-83
2023/12/17 08:48:50;;;;;;;3.90;3.20;;;;;;;;;;5033369;28;20544;-87
2023/12/17 08:51:18;;;;;;;4.83;3.60;;;;;;;;;;5034170;28;20453;-85
2023/12/17 08:53:47;;;;;;;4.90;3.43;;;;;;;;;;5042245;28;20558;-87
2023/12/17 08:56:26;;;;;;;4.00;3.33;;;;;;;;;;5039154;28;20515;-88
2023/12/17 08:58:56;;;;;;;4.30;3.33;;;;;;;;;;5027925;28;20485;-87
2023/12/17 09:01:25;;;;;;;3.30;3.00;;;;;;;;;;5041874;28;20933;-86
2023/12/17 09:03:54;;;;;;;4.20;3.43;;;;;;;;;;5035777;28;20539;-87
2023/12/17 09:06:23;;;;;;;3.43;3.13;;;;;;;;;;5039143;28;20460;-87
2023/12/17 09:08:52;;;;;;;4.13;3.23;;;;;;;;;;5043849;28;21129;-87
2023/12/17 09:11:25;;;;;;;3.77;3.30;;;;;;;;;;5041104;28;20498;-88
2023/12/17 09:13:55;;;;;;;3.40;2.90;;;;;;;;;;5037369;28;20474;-87
2023/12/17 09:16:34;;;;;;;6.87;5.00;;;;;;;;;;5044845;28;20447;-87
2023/12/17 09:19:01;;;;;;;4.53;2.93;;;;;;;;;;5044708;28;20488;-89
2023/12/17 09:21:32;;;;;;;6.43;4.00;;;;;;;;;;5043147;28;20791;-86
2023/12/17 09:24:00;;;;;;;3.40;3.10;;;;;;;;;;5031883;28;20481;-87
2023/12/17 09:26:30;;;;;;;4.50;3.50;;;;;;;;;;5042130;28;20473;-85
2023/12/17 09:28:57;;;;;;;3.10;2.87;;;;;;;;;;5036852;28;21071;-87
2023/12/17 09:31:27;;;;;;;3.60;3.07;;;;;;;;;;5039057;28;20457;-87
2023/12/17 09:33:59;;;;;;;3.30;2.90;;;;;;;;;;5039601;28;20498;-88
2023/12/17 09:36:27;;;;;;;5.83;4.43;;;;;;;;;;5037759;28;20446;-85
2023/12/17 09:38:54;;;;;;;5.40;4.17;;;;;;;;;;5040514;28;20472;-86
2023/12/17 09:41:23;;;;;;;4.67;3.83;;;;;;;;;;5039915;28;20454;-86
2023/12/17 09:43:51;;;;;;;6.20;4.60;;;;;;;;;;5042364;28;20474;-87
2023/12/17 09:46:30;;;;;;;5.13;4.40;;;;;;;;;;5023298;28;20454;-87
2023/12/17 09:48:59;;;;;;;6.13;4.43;;;;;;;;;;5044654;28;20452;-87
2023/12/17 09:51:28;;;;;;;5.13;4.27;;;;;;;;;;5040448;28;21010;-88
2023/12/17 09:53:57;;;;;;;5.10;4.60;;;;;;;;;;5035741;28;20484;-88
2023/12/17 09:56:27;;;;;;;5.67;4.77;;;;;;;;;;5035165;28;20453;-86
2023/12/17 09:58:59;;;;;;;5.30;4.50;;;;;;;;;;5043567;28;20461;-88
2023/12/17 10:01:32;;;;;;;5.47;4.97;;;;;;;;;;5050050;28;20483;-87
2023/12/17 10:04:03;;;;;;;5.50;5.00;;;;;;;;;;5044568;28;20485;-87
2023/12/17 10:06:32;;;;;;;5.90;5.30;;;;;;;;;;5042479;28;20450;-89
2023/12/17 10:09:08;;;;;;;3.93;3.53;;;;;;;;;;5039380;28;20454;-87
2023/12/17 10:11:39;;;;;;;4.70;4.20;;;;;;;;;;5045196;28;20450;-87
2023/12/17 10:14:20;;;;;;;5.93;4.40;;;;;;;;;;5042061;28;20893;-86
2023/12/17 10:16:53;;;;;;;4.93;4.43;;;;;;;;;;5044440;28;20440;-86
2023/12/17 10:19:24;;;;;;;5.33;3.90;;;;;;;;;;5044666;28;20438;-85
2023/12/17 10:21:57;;;;;;;8.20;4.80;;;;;;;;;;5054504;28;20470;-84
2023/12/17 10:24:37;;;;;;;5.80;4.87;;;;;;;;;;5045379;28;20457;-85
2023/12/17 10:27:22;;;;;;;6.70;5.47;;;;;;;;;;5049420;28;20477;-86
2023/12/17 10:29:56;;;;;;;4.50;4.10;;;;;;;;;;5043125;28;20481;-87
2023/12/17 10:32:43;;;;;;;4.53;4.13;;;;;;;;;;5042511;28;20469;-84
2023/12/17 10:35:12;;;;;;;6.03;4.70;;;;;;;;;;5038938;28;20467;-84
2023/12/17 10:37:45;;;;;;;4.43;3.70;;;;;;;;;;5041669;28;20466;-83
2023/12/17 10:40:21;;;;;;;4.03;3.63;;;;;;;;;;5042818;28;21105;-83
2023/12/17 10:43:01;;;;;;;;;;;;;;;;;;;;;
2023/12/17 10:45:39;;;;;;;4.40;4.00;;;;;;;;;;5058417;28;20441;-85
2023/12/17 10:48:09;;;;;;;4.30;3.90;;;;;;;;;;5057749;28;20439;-87
2023/12/17 10:50:53;;;;;;;4.00;3.70;;;;;;;;;;5046722;28;20545;-86
2023/12/17 10:53:20;;;;;;;3.30;3.00;;;;;;;;;;5042392;28;20486;-85
2023/12/17 10:55:51;;;;;;;4.40;3.43;;;;;;;;;;5047812;28;20453;-86
2023/12/17 10:58:23;;;;;;;3.40;3.10;;;;;;;;;;5049932;28;20468;-87
2023/12/17 11:00:53;;;;;;;4.17;3.63;;;;;;;;;;5045375;28;20441;-85
2023/12/17 11:03:31;;;;;;;3.37;3.00;;;;;;;;;;5053819;28;20456;-83
2023/12/17 11:06:07;;;;;;;4.57;3.30;;;;;;;;;;5050559;28;20536;-86
2023/12/17 11:08:36;;;;;;;5.03;3.17;;;;;;;;;;5045711;28;20529;-88
2023/12/17 11:11:04;;;;;;;4.00;3.60;;;;;;;;;;5040906;28;20493;-87
2023/12/17 11:13:33;;;;;;;5.03;3.97;;;;;;;;;;5041978;28;20495;-89
2023/12/17 11:16:17;;;;;;;3.40;3.10;;;;;;;;;;5040973;28;20447;-87
2023/12/17 11:18:45;;;;;;;3.77;3.30;;;;;;;;;;5039335;28;20445;-86
2023/12/17 11:21:15;;;;;;;3.97;3.57;;;;;;;;;;5044318;28;20457;-87
2023/12/17 11:23:57;;;;;;;4.07;3.77;;;;;;;;;;5040478;28;20526;-85
2023/12/17 11:26:40;;;;;;;4.10;3.80;;;;;;;;;;5046497;28;20446;-86
2023/12/17 11:29:26;;;;;;;5.63;4.20;;;;;;;;;;5036529;28;20647;-87
2023/12/17 11:31:56;;;;;;;4.93;4.20;;;;;;;;;;5042591;28;20557;-85
2023/12/17 11:34:23;;;;;;;4.20;3.90;;;;;;;;;;5039577;28;20462;-86
2023/12/17 11:36:54;;;;;;;4.07;3.67;;;;;;;;;;5033920;28;20518;-87
2023/12/17 11:39:28;;;;;;;4.40;3.90;;;;;;;;;;5039302;28;20467;-85
2023/12/17 11:42:08;;;;;;;3.77;3.47;;;;;;;;;;5043345;28;20453;-88
2023/12/17 11:44:47;;;;;;;5.90;4.30;;;;;;;;;;5040464;28;20449;-89
2023/12/17 11:47:19;;;;;;;4.47;4.07;;;;;;;;;;5050347;28;20442;-86
2023/12/17 11:49:50;;;;;;;5.20;4.70;;;;;;;;;;5042168;28;20484;-85
2023/12/17 11:52:20;;;;;;;3.93;3.63;;;;;;;;;;5039946;28;20473;-88
2023/12/17 11:54:58;;;;;;;4.77;4.37;;;;;;;;;;5034087;28;20447;-85
2023/12/17 11:57:35;;;;;;;4.93;4.33;;;;;;;;;;5037555;28;20460;-86
2023/12/17 12:00:13;;;;;;;4.13;3.73;;;;;;;;;;5034250;28;20490;-87
2023/12/17 12:02:41;;;;;;;4.20;3.90;;;;;;;;;;5038386;28;20477;-88
2023/12/17 12:05:11;;;;;;;4.60;4.20;;;;;;;;;;5038061;28;20463;-87
2023/12/17 12:11:04;;;;;;;;;;;;;;;;;;;;;
2023/12/17 12:13:53;;;;;;;3.40;3.13;;;;;;;;;;5035457;28;20466;-85
2023/12/17 12:16:39;;;;;;;3.90;3.57;;;;;;;;;;5032740;28;20449;-87
2023/12/17 12:19:10;;;;;;;4.73;4.30;;;;;;;;;;5038984;28;20460;-86
2023/12/17 12:21:49;;;;;;;3.90;3.53;;;;;;;;;;5036176;28;20457;-87
2023/12/17 12:24:20;;;;;;;3.70;3.40;;;;;;;;;;5033230;28;21041;-86
2023/12/17 12:26:50;;;;;;;4.77;4.37;;;;;;;;;;5037291;28;20450;-88
2023/12/17 12:29:20;;;;;;;4.33;3.77;;;;;;;;;;5035713;28;20449;-86
2023/12/17 12:31:51;;;;;;;4.00;3.63;;;;;;;;;;5032905;28;20596;-86
2023/12/17 12:34:32;;;;;;;3.77;3.47;;;;;;;;;;5033390;28;20471;-87
2023/12/17 12:37:00;;;;;;;3.87;3.50;;;;;;;;;;5037676;28;20449;-85
2023/12/17 12:39:30;;;;;;;4.77;3.90;;;;;;;;;;5038104;28;20446;-87
2023/12/17 12:42:16;;;;;;;3.87;3.47;;;;;;;;;;5040992;28;20465;-85
2023/12/17 12:44:47;;;;;;;3.53;3.27;;;;;;;;;;5039356;28;20571;-86
2023/12/17 12:47:18;;;;;;;3.17;2.87;;;;;;;;;;5053444;28;20480;-87
2023/12/17 12:49:48;;;;;;;4.00;3.60;;;;;;;;;;5040504;28;20469;-85
2023/12/17 12:52:18;;;;;;;3.80;3.50;;;;;;;;;;5042046;28;20558;-86
2023/12/17 12:54:52;;;;;;;4.07;3.67;;;;;;;;;;5049323;28;20520;-87
2023/12/17 12:57:19;;;;;;;3.50;3.30;;;;;;;;;;5038328;28;20592;-87
2023/12/17 12:59:56;;;;;;;3.87;3.47;;;;;;;;;;5043045;28;20457;-85
2023/12/17 13:02:23;;;;;;;4.70;3.13;;;;;;;;;;5044202;28;20511;-86
2023/12/17 13:04:51;;;;;;;3.40;3.10;;;;;;;;;;5039914;28;20466;-84
2023/12/17 13:07:27;;;;;;;3.40;3.10;;;;;;;;;;5040519;28;20430;-84
2023/12/17 13:09:54;;;;;;;3.40;3.10;;;;;;;;;;5041721;28;21020;-86
2023/12/17 13:12:27;;;;;;;3.73;3.30;;;;;;;;;;5037284;28;20497;-86
2023/12/17 13:14:54;;;;;;;3.10;2.90;;;;;;;;;;5036495;28;20454;-86
2023/12/17 13:17:22;;;;;;;3.53;3.20;;;;;;;;;;5047738;28;20449;-85
2023/12/17 13:19:54;;;;;;;3.63;3.20;;;;;;;;;;5039960;28;20466;-85
2023/12/17 13:22:21;;;;;;;3.57;3.10;;;;;;;;;;5043554;28;20481;-85
2023/12/17 13:24:53;;;;;;;3.30;2.90;;;;;;;;;;5043985;28;20484;-85
2023/12/17 13:27:24;;;;;;;3.47;3.17;;;;;;;;;;5056491;28;20472;-87
2023/12/17 13:29:57;;;;;;;3.43;3.13;;;;;;;;;;5040726;28;20449;-86
2023/12/17 13:32:27;;;;;;;2.60;2.40;;;;;;;;;;5045198;28;20560;-87
2023/12/17 13:34:57;;;;;;;4.47;4.07;;;;;;;;;;5054191;28;20527;-85
2023/12/17 13:37:27;;;;;;;4.13;2.97;;;;;;;;;;5064945;28;20434;-86
2023/12/17 13:39:54;;;;;;;2.70;2.50;;;;;;;;;;5058340;28;20462;-85
2023/12/17 13:42:26;;;;;;;3.23;2.93;;;;;;;;;;5044510;28;20490;-86
2023/12/17 13:44:56;;;;;;;3.43;3.03;;;;;;;;;;5044182;28;20486;-85
2023/12/17 13:47:35;;;;;;;2.60;2.40;;;;;;;;;;5047420;28;20833;-86
2023/12/17 13:50:03;;;;;;;3.07;2.80;;;;;;;;;;5040614;28;20500;-85
2023/12/17 13:52:34;;;;;;;3.00;2.60;;;;;;;;;;5040248;28;20506;-87
2023/12/17 13:55:07;;;;;;;3.20;2.90;;;;;;;;;;5035393;28;20475;-83
2023/12/17 13:57:37;;;;;;;2.53;2.30;;;;;;;;;;5038764;28;20530;-87
2023/12/17 14:00:05;;;;;;;3.57;3.17;;;;;;;;;;5040615;28;20496;-86
2023/12/17 14:02:39;;;;;;;2.83;2.63;;;;;;;;;;5040745;28;20482;-88
2023/12/17 14:05:07;;;;;;;4.53;4.17;;;;;;;;;;5040128;28;20454;-86
2023/12/17 14:07:49;;;;;;;3.60;3.30;;;;;;;;;;5038210;28;20451;-86
2023/12/17 14:13:12;;;;;;;3.00;2.80;;;;;;;;;;4992652;28;20590;-87
2023/12/17 14:15:42;;;;;;;3.57;3.27;;;;;;;;;;5026906;28;20475;-86
2023/12/17 14:18:14;;;;;;;3.60;3.30;;;;;;;;;;5031075;28;20524;-85
2023/12/17 14:20:49;;;;;;;3.83;3.20;;;;;;;;;;5033945;28;20484;-84
2023/12/17 14:23:22;;;;;;;4.20;3.57;;;;;;;;;;5029678;28;20471;-84
2023/12/17 14:26:01;;;;;;;3.40;3.10;;;;;;;;;;5023142;28;20478;-87
2023/12/17 14:28:36;;;;;;;3.57;3.00;;;;;;;;;;5004856;28;20464;-87
2023/12/17 14:31:07;;;;;;;3.10;2.80;;;;;;;;;;5008114;28;20574;-85
2023/12/17 14:33:38;;;;;;;3.13;2.83;;;;;;;;;;5002983;28;20472;-87
2023/12/17 14:36:06;;;;;;;3.07;2.80;;;;;;;;;;5032963;28;20450;-82
2023/12/17 14:38:44;;;;;;;2.90;2.60;;;;;;;;;;5003160;28;20483;-86
2023/12/17 14:41:33;;;;;;;4.83;3.57;;;;;;;;;;5011463;28;20502;-87
2023/12/17 14:44:17;;;;;;;4.07;3.47;;;;;;;;;;5027550;28;20673;-87
2023/12/17 14:46:56;;;;;;;3.40;3.10;;;;;;;;;;5030084;28;20448;-86
2023/12/17 14:49:32;;;;;;;3.97;3.37;;;;;;;;;;5020395;28;20459;-88
2023/12/17 14:52:18;;;;;;;3.90;3.50;;;;;;;;;;5044245;28;20487;-84
2023/12/17 14:55:00;;;;;;;3.67;3.37;;;;;;;;;;5017611;28;20452;-83
2023/12/17 14:57:43;;;;;;;3.40;3.10;;;;;;;;;;5030470;28;20463;-85
2023/12/17 15:00:22;;;;;;;3.37;3.07;;;;;;;;;;5003509;28;20459;-85
2023/12/17 15:03:08;;;;;;;4.30;3.70;;;;;;;;;;5008529;28;20539;-86
2023/12/17 15:05:49;;;;;;;3.77;3.10;;;;;;;;;;5017411;28;21024;-87
2023/12/17 15:08:34;;;;;;;;;;;;;;;;;;;;;
2023/12/17 15:11:14;;;;;;;3.13;2.80;;;;;;;;;;5007066;28;20490;-86
2023/12/17 15:13:57;;;;;;;2.87;2.60;;;;;;;;;;5002914;28;20464;-86
2023/12/17 15:16:39;;;;;;;3.80;3.10;;;;;;;;;;5013616;28;20451;-87
2023/12/17 15:19:16;;;;;;;3.50;3.20;;;;;;;;;;5012660;28;20492;-88
2023/12/17 15:22:01;;;;;;;3.40;3.13;;;;;;;;;;5024884;28;20446;-85
2023/12/17 15:24:34;;;;;;;3.43;3.13;;;;;;;;;;5011473;28;20498;-86
2023/12/17 15:27:10;;;;;;;4.10;3.73;;;;;;;;;;5005095;28;20463;-85
2023/12/17 15:29:50;;;;;;;4.27;3.87;;;;;;;;;;5011277;28;20468;-86
2023/12/17 15:32:34;;;;;;;5.10;4.03;;;;;;;;;;5006191;28;20551;-88
2023/12/17 15:35:02;;;;;;;3.90;3.50;;;;;;;;;;5021780;28;20543;-86
2023/12/17 15:37:40;;;;;;;4.57;4.00;;;;;;;;;;5002349;28;20948;-87
2023/12/17 15:40:14;;;;;;;4.63;3.77;;;;;;;;;;5010095;28;20450;-87
2023/12/17 15:42:42;;;;;;;4.43;4.03;;;;;;;;;;5002576;28;20480;-86
2023/12/17 15:45:15;;;;;;;5.07;4.57;;;;;;;;;;5019665;28;20531;-86